createdAt,value
2018-09-01T00:00:55.829Z,22.53
2018-09-01T00:03:28.993Z,21.53
2018-09-01T00:06:02.138Z,21.83
2018-09-01T00:08:36.225Z,20.50
2018-09-01T00:11:09.434Z,20.77
2018-09-01T00:13:42.585Z,20.97
2018-09-01T00:16:15.756Z,20.30
2018-09-01T00:18:49.167Z,19.40
2018-09-01T00:21:22.306Z,19.63
2018-09-01T00:23:55.464Z,20.30
2018-09-01T00:26:28.644Z,19.77
2018-09-01T00:29:01.819Z,20.07
2018-09-01T00:31:35.121Z,20.23
2018-09-01T00:34:08.298Z,21.27
2018-09-01T00:36:41.437Z,22.10
2018-09-01T00:39:14.595Z,22.10
2018-09-01T00:41:47.746Z,20.43
2018-09-01T00:44:21.081Z,22.50
2018-09-01T00:46:54.219Z,21.03
2018-09-01T00:49:27.408Z,19.63
2018-09-01T00:52:00.583Z,20.07
2018-09-01T00:54:33.762Z,19.90
2018-09-01T00:57:07.029Z,19.93
2018-09-01T00:59:40.197Z,20.67
2018-09-01T01:02:13.351Z,19.03
2018-09-01T01:04:46.618Z,20.20
2018-09-01T01:07:19.792Z,22.50
2018-09-01T01:09:53.019Z,22.97
2018-09-01T01:12:26.184Z,20.47
2018-09-01T01:14:59.382Z,22.80
2018-09-01T01:17:32.619Z,23.83
2018-09-01T01:20:05.781Z,22.17
2018-09-01T01:22:38.933Z,21.73
2018-09-01T01:25:12.099Z,22.33
2018-09-01T01:27:45.283Z,21.63
2018-09-01T01:30:18.428Z,22.10
2018-09-01T01:32:51.666Z,21.97
2018-09-01T01:35:24.821Z,22.83
2018-09-01T01:37:57.982Z,23.57
2018-09-01T01:40:31.149Z,22.80
2018-09-01T01:43:04.298Z,22.53
2018-09-01T01:45:37.486Z,22.70
2018-09-01T01:48:10.627Z,23.93
2018-09-01T01:50:43.787Z,22.23
2018-09-01T01:53:17.133Z,22.87
2018-09-01T01:55:50.294Z,23.83
2018-09-01T01:58:23.434Z,22.63
2018-09-01T02:00:56.607Z,21.47
2018-09-01T02:03:29.761Z,23.63
2018-09-01T02:06:02.912Z,23.83
2018-09-01T02:08:36.083Z,23.90
2018-09-01T02:11:09.298Z,23.57
2018-09-01T02:13:42.461Z,24.07
2018-09-01T02:16:15.649Z,20.10
2018-09-01T02:18:48.825Z,18.83
2018-09-01T02:21:21.981Z,18.87
2018-09-01T02:23:55.133Z,20.37
2018-09-01T02:26:28.425Z,20.00
2018-09-01T02:29:01.590Z,19.70
2018-09-01T02:31:34.751Z,18.63
2018-09-01T02:34:07.903Z,18.30
2018-09-01T02:36:41.061Z,15.97
2018-09-01T02:39:14.223Z,18.33
2018-09-01T02:41:47.384Z,17.17
2018-09-01T02:44:20.545Z,16.10
2018-09-01T02:46:53.721Z,16.30
2018-09-01T02:49:26.870Z,15.93
2018-09-01T02:52:00.087Z,16.80
2018-09-01T02:54:33.241Z,16.17
2018-09-01T02:57:06.733Z,17.77
2018-09-01T02:59:39.877Z,16.57
2018-09-01T03:02:17.290Z,16.30
2018-09-01T03:04:53.454Z,17.13
2018-09-01T03:07:26.612Z,17.07
2018-09-01T03:09:59.763Z,17.23
2018-09-01T03:12:32.944Z,16.50
2018-09-01T03:15:06.832Z,16.47
2018-09-01T03:17:39.987Z,17.87
2018-09-01T03:20:13.149Z,17.60
2018-09-01T03:22:46.318Z,17.57
2018-09-01T03:25:19.456Z,16.13
2018-09-01T03:27:52.633Z,19.07
2018-09-01T03:30:25.763Z,17.70
2018-09-01T03:32:58.946Z,18.70
2018-09-01T03:35:32.087Z,17.77
2018-09-01T03:38:05.289Z,18.10
2018-09-01T03:40:38.434Z,17.60
2018-09-01T03:43:11.578Z,17.60
2018-09-01T03:45:44.740Z,18.37
2018-09-01T03:48:17.904Z,15.27
2018-09-01T03:50:51.084Z,18.30
2018-09-01T03:53:24.230Z,18.63
2018-09-01T03:55:57.379Z,18.17
2018-09-01T03:58:30.537Z,17.77
2018-09-01T04:01:03.699Z,18.10
2018-09-01T04:03:37.093Z,17.73
2018-09-01T04:06:10.292Z,20.13
2018-09-01T04:08:43.460Z,19.50
2018-09-01T04:11:16.646Z,19.27
2018-09-01T04:13:49.817Z,19.23
2018-09-01T04:16:22.965Z,18.23
2018-09-01T04:18:56.153Z,17.37
2018-09-01T04:21:29.315Z,16.23
2018-09-01T04:24:02.477Z,16.23
2018-09-01T04:26:35.643Z,17.17
2018-09-01T04:29:08.813Z,16.23
2018-09-01T04:31:41.964Z,16.53
2018-09-01T04:34:15.154Z,17.70
2018-09-01T04:36:48.327Z,16.77
2018-09-01T04:39:21.494Z,16.20
2018-09-01T04:41:54.639Z,17.40
2018-09-01T04:44:27.807Z,18.30
2018-09-01T04:47:01.082Z,18.20
2018-09-01T04:49:34.285Z,19.37
2018-09-01T04:52:07.446Z,18.10
2018-09-01T04:54:40.615Z,18.00
2018-09-01T04:57:13.774Z,17.77
2018-09-01T04:59:46.957Z,17.90
2018-09-01T05:02:20.121Z,17.63
2018-09-01T05:04:53.318Z,18.50
2018-09-01T05:07:26.577Z,18.23
2018-09-01T05:09:59.730Z,18.60
2018-09-01T05:12:32.903Z,18.27
2018-09-01T05:15:06.109Z,18.30
2018-09-01T05:17:39.253Z,18.10
2018-09-01T05:20:12.501Z,17.73
2018-09-01T05:22:45.670Z,19.03
2018-09-01T05:25:18.850Z,18.87
2018-09-01T05:27:52.034Z,18.83
2018-09-01T05:30:25.214Z,19.80
2018-09-01T05:32:58.637Z,18.27
2018-09-01T05:35:31.855Z,18.30
2018-09-01T05:38:05.005Z,18.43
2018-09-01T05:40:38.203Z,18.40
2018-09-01T05:43:11.366Z,18.10
2018-09-01T05:45:44.579Z,17.30
2018-09-01T05:48:17.747Z,17.57
2018-09-01T05:50:50.941Z,17.47
2018-09-01T05:53:24.143Z,17.23
2018-09-01T05:55:57.310Z,17.73
2018-09-01T05:58:30.561Z,17.90
2018-09-01T06:01:03.714Z,17.77
2018-09-01T06:03:36.891Z,17.83
2018-09-01T06:06:10.150Z,16.70
2018-09-01T06:08:43.250Z,18.30
2018-09-01T06:11:16.519Z,17.80
2018-09-01T06:13:49.658Z,18.33
2018-09-01T06:16:22.857Z,18.37
2018-09-01T06:18:56.045Z,17.90
2018-09-01T06:21:29.260Z,17.90
2018-09-01T06:24:02.749Z,15.33
2018-09-01T06:26:35.830Z,16.83
2018-09-01T06:29:14.343Z,18.20
2018-09-01T06:31:51.585Z,16.17
2018-09-01T06:34:24.853Z,17.60
2018-09-01T06:36:58.072Z,17.13
2018-09-01T06:39:31.327Z,16.63
2018-09-01T06:42:04.501Z,16.33
2018-09-01T06:44:37.678Z,17.47
2018-09-01T06:47:10.890Z,17.10
2018-09-01T06:49:44.057Z,15.83
2018-09-01T06:52:17.313Z,16.40
2018-09-01T06:54:50.473Z,16.20
2018-09-01T06:57:23.697Z,16.57
2018-09-01T06:59:56.849Z,16.63
2018-09-01T07:02:30.046Z,16.33
2018-09-01T07:05:03.203Z,15.87
2018-09-01T07:07:36.376Z,15.87
2018-09-01T07:10:09.542Z,15.23
2018-09-01T07:12:42.727Z,15.63
2018-09-01T07:15:16.242Z,15.27
2018-09-01T07:17:49.398Z,16.20
2018-09-01T07:20:22.625Z,16.03
2018-09-01T07:22:55.759Z,16.10
2018-09-01T07:25:28.933Z,15.93
2018-09-01T07:28:02.111Z,16.47
2018-09-01T07:30:35.460Z,14.10
2018-09-01T07:33:08.449Z,14.07
2018-09-01T07:35:41.610Z,13.80
2018-09-01T07:38:14.777Z,14.57
2018-09-01T07:40:47.949Z,14.07
2018-09-01T07:43:21.197Z,13.77
2018-09-01T07:45:54.349Z,12.93
2018-09-01T07:48:27.529Z,13.03
2018-09-01T07:51:00.823Z,13.17
2018-09-01T07:53:33.974Z,13.33
2018-09-01T07:56:07.248Z,12.50
2018-09-01T07:58:40.462Z,12.33
2018-09-01T08:01:13.698Z,13.00
2018-09-01T08:03:46.858Z,13.13
2018-09-01T08:06:20.006Z,12.50
2018-09-01T08:08:53.174Z,13.10
2018-09-01T08:11:26.325Z,12.20
2018-09-01T08:13:59.722Z,12.70
2018-09-01T08:16:32.686Z,12.80
2018-09-01T08:19:06.485Z,13.07
2018-09-01T08:21:39.674Z,12.10
2018-09-01T08:24:12.849Z,12.07
2018-09-01T08:26:46.023Z,12.30
2018-09-01T08:29:19.314Z,11.73
2018-09-01T08:31:52.445Z,11.73
2018-09-01T08:34:25.603Z,11.20
2018-09-01T08:36:58.745Z,12.23
2018-09-01T08:39:31.940Z,11.47
2018-09-01T08:42:05.082Z,12.10
2018-09-01T08:44:38.255Z,11.93
2018-09-01T08:47:11.433Z,11.77
2018-09-01T08:49:44.621Z,11.97
2018-09-01T08:52:17.800Z,11.93
2018-09-01T08:54:50.951Z,10.70
2018-09-01T08:57:24.121Z,12.13
2018-09-01T08:59:57.283Z,10.97
2018-09-01T09:02:30.436Z,11.70
2018-09-01T09:05:03.758Z,11.80
2018-09-01T09:07:36.899Z,11.60
2018-09-01T09:10:10.732Z,11.27
2018-09-01T09:12:43.893Z,11.47
2018-09-01T09:15:17.067Z,11.17
2018-09-01T09:17:50.213Z,11.43
2018-09-01T09:20:23.387Z,10.63
2018-09-01T09:22:56.551Z,10.17
2018-09-01T09:25:29.733Z,8.45
2018-09-01T09:28:02.870Z,9.17
2018-09-01T09:30:36.025Z,9.10
2018-09-01T09:33:09.268Z,9.17
2018-09-01T09:35:42.429Z,8.60
2018-09-01T09:38:15.729Z,8.00
2018-09-01T09:40:48.890Z,7.27
2018-09-01T09:43:22.161Z,8.10
2018-09-01T09:45:55.360Z,7.50
2018-09-01T09:48:28.534Z,6.90
2018-09-01T09:51:01.708Z,6.80
2018-09-01T09:53:34.849Z,6.40
2018-09-01T09:56:08.194Z,6.50
2018-09-01T09:58:41.354Z,6.30
2018-09-01T10:01:19.981Z,6.17
2018-09-01T10:03:53.226Z,6.30
2018-09-01T10:06:26.387Z,5.70
2018-09-01T10:08:59.541Z,5.27
2018-09-01T10:11:32.729Z,5.60
2018-09-01T10:14:05.882Z,6.10
2018-09-01T10:16:39.572Z,5.63
2018-09-01T10:19:12.725Z,5.60
2018-09-01T10:21:45.921Z,5.57
2018-09-01T10:24:19.149Z,5.27
2018-09-01T10:26:52.375Z,5.20
2018-09-01T10:29:25.465Z,5.10
2018-09-01T10:31:58.719Z,5.33
2018-09-01T10:34:31.881Z,4.97
2018-09-01T10:37:05.066Z,4.70
2018-09-01T10:39:38.265Z,4.70
2018-09-01T10:42:11.433Z,4.30
2018-09-01T10:44:44.610Z,3.93
2018-09-01T10:47:17.770Z,4.00
2018-09-01T10:49:50.935Z,3.50
2018-09-01T10:52:24.163Z,3.40
2018-09-01T10:54:57.336Z,3.37
2018-09-01T10:57:30.731Z,3.30
2018-09-01T11:00:04.466Z,2.90
2018-09-01T11:02:37.629Z,3.50
2018-09-01T11:05:10.835Z,3.50
2018-09-01T11:07:43.932Z,3.23
2018-09-01T11:10:17.490Z,2.80
2018-09-01T11:12:50.645Z,3.00
2018-09-01T11:15:23.832Z,3.20
2018-09-01T11:17:57.013Z,2.80
2018-09-01T11:20:30.169Z,3.20
2018-09-01T11:23:03.394Z,3.40
2018-09-01T11:25:36.691Z,3.33
2018-09-01T11:28:09.987Z,3.23
2018-09-01T11:30:43.237Z,3.40
2018-09-01T11:33:16.394Z,3.50
2018-09-01T11:35:49.566Z,3.20
2018-09-01T11:38:22.738Z,3.60
2018-09-01T11:40:55.943Z,3.87
2018-09-01T11:43:29.138Z,3.33
2018-09-01T11:46:02.299Z,3.40
2018-09-01T11:48:35.447Z,3.40
2018-09-01T11:51:08.620Z,3.57
2018-09-01T11:53:41.802Z,3.40
2018-09-01T11:56:14.905Z,3.50
2018-09-01T11:58:48.098Z,3.93
2018-09-01T12:01:21.224Z,3.40
2018-09-01T12:03:54.390Z,3.30
2018-09-01T12:06:27.545Z,3.30
2018-09-01T12:09:00.809Z,3.37
2018-09-01T12:11:36.562Z,3.47
2018-09-01T12:14:09.732Z,3.23
2018-09-01T12:16:42.943Z,3.30
2018-09-01T12:19:16.102Z,3.23
2018-09-01T12:21:49.276Z,3.20
2018-09-01T12:24:22.525Z,3.40
2018-09-01T12:26:55.793Z,3.63
2018-09-01T12:29:28.991Z,2.93
2018-09-01T12:32:02.306Z,3.10
2018-09-01T12:34:35.485Z,3.20
2018-09-01T12:37:08.643Z,3.00
2018-09-01T12:39:41.797Z,3.07
2018-09-01T12:42:14.941Z,3.08
2018-09-01T12:44:48.114Z,3.33
2018-09-01T12:47:21.297Z,3.23
2018-09-01T12:49:54.415Z,3.07
2018-09-01T12:52:27.677Z,2.87
2018-09-01T12:55:00.809Z,3.00
2018-09-01T12:57:33.963Z,3.20
2018-09-01T13:00:07.327Z,3.00
2018-09-01T13:02:40.521Z,3.10
2018-09-01T13:05:13.686Z,3.00
2018-09-01T13:07:46.901Z,3.30
2018-09-01T13:10:20.058Z,3.20
2018-09-01T13:12:53.213Z,3.27
2018-09-01T13:15:26.373Z,3.10
2018-09-01T13:17:59.529Z,3.37
2018-09-01T13:20:32.685Z,3.40
2018-09-01T13:23:06.105Z,3.33
2018-09-01T13:25:39.308Z,3.40
2018-09-01T13:28:12.460Z,2.90
2018-09-01T13:30:45.684Z,3.50
2018-09-01T13:33:18.874Z,3.40
2018-09-01T13:35:52.059Z,3.73
2018-09-01T13:38:25.223Z,3.27
2018-09-01T13:40:58.368Z,3.00
2018-09-01T13:43:31.562Z,3.53
2018-09-01T13:46:04.781Z,3.47
2018-09-01T13:48:37.967Z,3.40
2018-09-01T13:51:11.250Z,3.20
2018-09-01T13:53:44.437Z,3.40
2018-09-01T14:37:26.541Z,3.20
2018-09-01T14:40:00.278Z,3.10
2018-09-01T14:42:33.505Z,3.03
2018-09-01T14:45:06.697Z,3.30
2018-09-01T14:47:39.917Z,3.00
2018-09-01T14:50:13.068Z,2.83
2018-09-01T14:52:46.249Z,2.80
2018-09-01T14:55:19.406Z,2.87
2018-09-01T14:57:52.612Z,3.10
2018-09-01T15:00:25.729Z,2.90
2018-09-01T15:02:58.930Z,3.20
2018-09-01T15:05:32.084Z,2.90
2018-09-01T15:08:05.276Z,3.23
2018-09-01T15:10:38.443Z,2.90
2018-09-01T15:13:11.628Z,2.67
2018-09-01T15:15:44.780Z,2.87
2018-09-01T15:18:17.939Z,3.40
2018-09-01T15:20:51.134Z,3.37
2018-09-01T15:23:24.479Z,2.90
2018-09-01T15:25:57.638Z,3.17
2018-09-01T15:28:30.845Z,3.97
2018-09-01T15:31:03.961Z,4.20
2018-09-01T15:33:37.129Z,3.00
2018-09-01T15:36:10.264Z,2.77
2018-09-01T15:38:44.290Z,2.70
2018-09-01T15:41:17.447Z,3.20
2018-09-01T15:43:50.634Z,3.60
2018-09-01T15:46:23.786Z,3.53
2018-09-01T15:48:56.937Z,3.60
2018-09-01T15:51:30.293Z,3.53
2018-09-01T15:54:03.447Z,3.67
2018-09-01T15:56:36.676Z,3.60
2018-09-01T15:59:09.755Z,3.17
2018-09-01T16:01:42.911Z,4.13
2018-09-01T16:04:16.101Z,3.33
2018-09-01T16:06:49.259Z,3.80
2018-09-01T16:09:22.466Z,3.23
2018-09-01T16:11:55.594Z,3.37
2018-09-01T16:14:28.771Z,5.90
2018-09-01T16:17:01.911Z,4.67
2018-09-01T16:19:35.106Z,3.63
2018-09-01T16:22:08.245Z,3.90
2018-09-01T16:24:41.528Z,3.07
2018-09-01T16:27:14.595Z,3.00
2018-09-01T16:29:47.773Z,2.80
2018-09-01T16:32:20.984Z,13.47
2018-09-01T16:34:54.149Z,5.53
2018-09-01T16:37:27.358Z,4.57
2018-09-01T16:40:00.608Z,10.55
2018-09-01T16:42:33.780Z,10.25
2018-09-01T16:45:06.926Z,6.42
2018-09-01T16:47:40.089Z,5.90
2018-09-01T16:50:13.246Z,3.00
2018-09-01T16:52:46.401Z,3.30
2018-09-01T16:55:19.651Z,3.00
2018-09-01T16:57:52.798Z,3.20
2018-09-01T17:00:26.038Z,3.93
2018-09-01T17:02:59.142Z,3.20
2018-09-01T17:05:32.400Z,3.00
2018-09-01T17:11:12.883Z,3.50
2018-09-01T17:13:46.291Z,3.90
2018-09-01T17:16:19.453Z,4.17
2018-09-01T17:18:52.622Z,4.00
2018-09-01T17:21:25.805Z,4.07
2018-09-01T17:23:58.957Z,3.60
2018-09-01T17:26:32.138Z,3.20
2018-09-01T17:30:36.782Z,3.20
2018-09-01T17:33:11.009Z,3.33
2018-09-01T17:35:44.193Z,3.53
2018-09-01T17:38:17.360Z,3.50
2018-09-01T17:40:50.574Z,3.30
2018-09-01T17:43:23.789Z,3.20
2018-09-01T17:45:56.994Z,3.37
2018-09-01T17:48:30.162Z,3.33
2018-09-01T17:51:03.376Z,3.10
2018-09-01T17:53:37.041Z,3.17
2018-09-01T17:56:10.298Z,3.40
2018-09-01T17:58:43.490Z,4.07
2018-09-01T18:01:17.794Z,4.03
2018-09-01T18:03:51.111Z,3.30
2018-09-01T18:06:24.723Z,4.10
2018-09-01T18:08:58.078Z,5.00
2018-09-01T18:11:31.354Z,4.53
2018-09-01T18:14:04.665Z,4.27
2018-09-01T18:16:38.066Z,6.80
2018-09-01T18:19:11.254Z,7.43
2018-09-01T18:21:49.958Z,6.40
2018-09-01T18:24:23.125Z,6.05
2018-09-01T18:26:56.298Z,6.60
2018-09-01T18:29:29.529Z,5.50
2018-09-01T18:32:02.629Z,5.53
2018-09-01T18:34:42.710Z,6.37
2018-09-01T18:37:15.869Z,6.80
2018-09-01T18:39:49.039Z,7.40
2018-09-01T18:42:22.322Z,6.47
2018-09-01T18:44:55.501Z,7.20
2018-09-01T18:47:28.707Z,6.60
2018-09-01T18:50:01.843Z,7.67
2018-09-01T18:52:34.993Z,6.47
2018-09-01T18:55:08.198Z,5.87
2018-09-01T18:57:41.342Z,6.27
2018-09-01T19:00:14.558Z,5.67
2018-09-01T19:02:47.998Z,5.50
2018-09-01T19:05:27.948Z,5.90
2018-09-01T19:08:01.242Z,5.40
2018-09-01T19:10:34.558Z,5.23
2018-09-01T19:13:07.836Z,5.10
2018-09-01T19:15:41.130Z,5.30
2018-09-01T19:18:14.424Z,5.70
2018-09-01T19:20:47.718Z,5.70
2018-09-01T19:23:21.008Z,5.10
2018-09-01T19:25:54.307Z,4.83
2018-09-01T19:28:27.630Z,5.60
2018-09-01T19:31:01.031Z,5.47
2018-09-01T19:33:34.184Z,5.37
2018-09-01T19:36:07.354Z,4.80
2018-09-01T19:38:40.549Z,4.90
2018-09-01T19:41:13.728Z,4.33
2018-09-01T19:43:47.179Z,4.37
2018-09-01T19:46:20.442Z,4.30
2018-09-01T19:48:53.518Z,4.87
2018-09-01T19:51:26.774Z,4.73
2018-09-01T19:54:00.201Z,4.43
2018-09-01T19:56:34.415Z,4.67
2018-09-01T19:59:07.598Z,4.40
2018-09-01T20:01:40.785Z,4.67
2018-09-01T20:04:13.979Z,4.23
2018-09-01T20:06:48.246Z,4.67
2018-09-01T20:09:21.421Z,4.90
2018-09-01T20:11:55.659Z,4.77
2018-09-01T20:14:29.068Z,4.57
2018-09-01T20:17:02.379Z,4.70
2018-09-01T20:19:35.543Z,4.60
2018-09-01T20:22:08.722Z,4.57
2018-09-01T20:24:43.945Z,4.17
2018-09-01T20:27:17.205Z,4.53
2018-09-01T20:29:50.371Z,4.40
2018-09-01T20:32:23.537Z,4.37
2018-09-01T20:35:02.275Z,4.87
2018-09-01T20:37:35.439Z,4.77
2018-09-01T20:40:10.677Z,5.87
2018-09-01T20:42:43.843Z,5.30
2018-09-01T20:45:17.022Z,5.27
2018-09-01T20:47:56.102Z,5.63
2018-09-01T20:50:29.282Z,6.20
2018-09-01T20:53:02.434Z,5.30
2018-09-01T20:55:35.597Z,4.73
2018-09-01T20:58:08.965Z,5.03
2018-09-01T21:00:42.155Z,5.33
2018-09-01T21:03:16.598Z,5.70
2018-09-01T21:05:49.758Z,4.90
2018-09-01T21:08:22.905Z,4.60
2018-09-01T21:10:58.086Z,4.37
2018-09-01T21:13:31.251Z,4.77
2018-09-01T21:16:04.725Z,4.27
2018-09-01T21:18:37.918Z,5.10
2018-09-01T21:21:11.061Z,5.20
2018-09-01T21:23:44.230Z,4.80
2018-09-01T21:26:17.400Z,4.90
2018-09-01T21:28:50.554Z,4.87
2018-09-01T21:31:23.744Z,4.87
2018-09-01T21:33:56.921Z,4.97
2018-09-01T21:36:31.132Z,5.20
2018-09-01T21:39:04.991Z,4.93
2018-09-01T21:41:38.662Z,4.90
2018-09-01T21:44:12.068Z,5.10
2018-09-01T21:46:45.411Z,5.07
2018-09-01T21:49:18.589Z,5.90
2018-09-01T21:51:51.746Z,6.50
2018-09-01T21:54:24.929Z,7.63
2018-09-01T21:56:58.183Z,7.43
2018-09-01T21:59:31.277Z,7.90
2018-09-01T22:02:09.896Z,7.93
2018-09-01T22:04:48.533Z,7.53
2018-09-01T22:07:22.207Z,6.17
2018-09-01T22:09:55.680Z,5.73
2018-09-01T22:12:28.964Z,8.00
2018-09-01T22:15:02.123Z,6.87
2018-09-01T22:17:35.287Z,7.77
2018-09-01T22:20:15.149Z,7.83
2018-09-01T22:22:48.316Z,8.60
2018-09-01T22:25:21.500Z,7.90
2018-09-01T22:27:54.673Z,7.90
2018-09-01T22:30:27.867Z,7.17
2018-09-01T22:33:01.018Z,6.80
2018-09-01T22:35:34.178Z,7.43
2018-09-01T22:38:07.338Z,6.93
2018-09-01T22:40:40.513Z,6.77
2018-09-01T22:43:13.685Z,7.20
2018-09-01T22:45:46.877Z,6.93
2018-09-01T22:48:20.850Z,6.50
2018-09-01T22:50:54.022Z,6.40
2018-09-01T22:53:27.174Z,6.93
2018-09-01T22:56:00.671Z,6.07
2018-09-01T22:58:33.822Z,6.40
2018-09-01T23:01:06.985Z,5.70
2018-09-01T23:03:40.177Z,5.93
2018-09-01T23:06:13.454Z,6.00
2018-09-01T23:08:46.817Z,5.93
2018-09-01T23:11:20.895Z,5.70
2018-09-01T23:13:54.059Z,5.93
2018-09-01T23:16:27.273Z,6.43
2018-09-01T23:19:00.509Z,6.77
2018-09-01T23:21:34.057Z,6.70
2018-09-01T23:24:07.415Z,6.50
2018-09-01T23:26:40.579Z,5.80
2018-09-01T23:29:13.748Z,6.30
2018-09-01T23:31:46.964Z,5.97
2018-09-01T23:34:21.124Z,5.83
2018-09-01T23:36:54.270Z,5.87
2018-09-01T23:39:27.429Z,5.70
2018-09-01T23:42:00.600Z,5.23
2018-09-01T23:44:33.868Z,5.80
2018-09-01T23:47:07.929Z,5.67
2018-09-01T23:49:41.176Z,5.40
2018-09-01T23:52:14.773Z,5.73
2018-09-01T23:54:48.058Z,5.80
2018-09-01T23:57:21.233Z,8.10
2018-09-01T23:59:54.399Z,7.40
